Time;durP1;ratioP1;P1;durP2;ratioP2;P2;SDS_P1;SDS_P2;PMS_P1;PMS_P2;Temp;Humidity;BMP_temperature;BMP_pressure;BME280_temperature;BME280_humidity;BME280_pressure;Samples;Min_cycle;Max_cycle;Signal;HPM_P1;HPM_P2
2023/01/14 06:55:29;;;;;;;13.80;2.40;;;;;;;;;;10632529;27;20115;-83
2023/01/14 07:00:34;;;;;;;12.82;2.85;;;;;;;;;;10564537;28;20084;-84
2023/01/14 07:05:39;;;;;;;9.90;2.50;;;;;;;;;;10548730;28;20100;-83
2023/01/14 07:10:40;;;;;;;9.75;2.53;;;;;;;;;;10548118;28;20027;-84
2023/01/14 07:15:43;;;;;;;7.63;2.63;;;;;;;;;;10549274;28;20020;-84
2023/01/14 07:20:44;;;;;;;10.90;2.30;;;;;;;;;;10549040;28;20052;-84
2023/01/14 07:25:45;;;;;;;;;;;;;;;;;;10549755;28;20078;-84
2023/01/14 07:30:52;;;;;;;7.93;2.30;;;;;;;;;;10550978;28;20331;-84
2023/01/14 07:35:53;;;;;;;8.43;2.15;;;;;;;;;;10546351;28;20040;-84
2023/01/14 07:40:54;;;;;;;7.85;1.77;;;;;;;;;;10544471;28;20123;-84
2023/01/14 07:45:59;;;;;;;4.15;1.50;;;;;;;;;;10538529;28;20197;-84
2023/01/14 07:51:02;;;;;;;5.35;1.60;;;;;;;;;;10539560;28;20030;-83
2023/01/14 07:56:10;;;;;;;7.03;2.17;;;;;;;;;;10539734;28;20051;-83
2023/01/14 08:01:11;;;;;;;5.00;1.35;;;;;;;;;;10540479;28;20032;-82
2023/01/14 08:06:12;;;;;;;6.63;1.80;;;;;;;;;;10519926;28;20025;-80
2023/01/14 08:11:13;;;;;;;4.65;1.80;;;;;;;;;;10510926;28;20048;-83
2023/01/14 08:16:15;;;;;;;8.55;2.55;;;;;;;;;;10508142;28;20031;-83
2023/01/14 08:21:16;;;;;;;4.95;1.70;;;;;;;;;;10507543;28;20063;-82
2023/01/14 08:26:17;;;;;;;11.63;2.45;;;;;;;;;;10509255;28;20052;-83
2023/01/14 08:31:18;;;;;;;8.07;2.17;;;;;;;;;;10514301;28;20036;-83
2023/01/14 08:36:19;;;;;;;10.90;2.33;;;;;;;;;;10521309;28;20171;-82
2023/01/14 08:41:20;;;;;;;;;;;;;;;;;;10515559;28;20028;-82
2023/01/14 08:46:21;;;;;;;4.60;1.80;;;;;;;;;;10526496;28;19972;-79
2023/01/14 08:51:26;;;;;;;7.47;2.10;;;;;;;;;;10551024;28;20029;-80
2023/01/14 08:56:27;;;;;;;8.35;1.98;;;;;;;;;;10545650;28;21405;-82
2023/01/14 09:01:29;;;;;;;;;;;;;;;;;;10516217;28;20094;-82
2023/01/14 09:17:04;;;;;;;10.45;2.10;;;;;;;;;;10508085;28;20274;-82
2023/01/14 09:17:12;;;;;;;7.20;2.38;;;;;;;;;;10510210;28;20032;-83
2023/01/14 09:22:16;;;;;;;8.43;2.30;;;;;;;;;;10507329;28;20032;-82
2023/01/14 09:27:17;;;;;;;8.43;1.90;;;;;;;;;;10506722;28;20115;-83
2023/01/14 09:32:18;;;;;;;8.95;2.13;;;;;;;;;;10508219;28;20024;-82
2023/01/14 09:37:20;;;;;;;9.25;2.17;;;;;;;;;;10506516;28;20020;-84
2023/01/14 09:42:39;;;;;;;9.55;2.25;;;;;;;;;;10510122;28;20024;-83
2023/01/14 09:47:41;;;;;;;6.07;1.55;;;;;;;;;;10508166;28;20029;-82
2023/01/14 09:52:51;;;;;;;6.75;1.70;;;;;;;;;;10520067;28;20040;-82
2023/01/14 09:57:56;;;;;;;5.10;1.42;;;;;;;;;;10515384;28;20024;-83
2023/01/14 10:03:07;;;;;;;5.30;1.52;;;;;;;;;;10521331;28;20090;-83
2023/01/14 10:08:14;;;;;;;4.78;1.70;;;;;;;;;;10509721;28;20024;-82
2023/01/14 10:13:23;;;;;;;5.85;2.10;;;;;;;;;;10507992;28;20032;-83
2023/01/14 10:18:27;;;;;;;2.67;1.05;;;;;;;;;;10507030;28;20028;-83
2023/01/14 10:23:29;;;;;;;6.45;1.77;;;;;;;;;;10507482;28;20095;-83
2023/01/14 10:28:31;;;;;;;4.05;1.20;;;;;;;;;;10511009;28;20042;-85
2023/01/14 10:33:34;;;;;;;4.82;1.50;;;;;;;;;;10541968;28;20032;-86
2023/01/14 10:38:36;;;;;;;4.07;1.20;;;;;;;;;;10510164;28;20035;-83
2023/01/14 10:43:42;;;;;;;3.03;0.90;;;;;;;;;;10514207;28;20035;-84
2023/01/14 10:48:56;;;;;;;4.18;1.27;;;;;;;;;;10511004;28;20048;-84
2023/01/14 10:54:12;;;;;;;4.72;1.40;;;;;;;;;;10517012;28;20132;-84
2023/01/14 10:59:33;;;;;;;4.57;0.95;;;;;;;;;;10509389;28;20497;-83
2023/01/14 11:04:35;;;;;;;4.20;1.00;;;;;;;;;;10486186;28;20070;-82
2023/01/14 11:09:37;;;;;;;3.55;1.10;;;;;;;;;;10520787;28;20087;-84
2023/01/14 11:14:39;;;;;;;3.08;0.82;;;;;;;;;;10508240;28;20020;-84
2023/01/14 11:20:01;;;;;;;2.60;0.90;;;;;;;;;;10489412;28;20512;-84
2023/01/14 11:30:43;;;;;;;3.55;1.10;;;;;;;;;;10508270;28;20459;-84
2023/01/14 11:35:57;;;;;;;3.90;1.60;;;;;;;;;;10508882;28;20067;-86
2023/01/14 11:46:18;;;;;;;2.60;0.80;;;;;;;;;;10515205;28;20033;-83
2023/01/14 11:51:21;;;;;;;5.28;1.60;;;;;;;;;;10536750;28;20094;-83
2023/01/14 11:56:31;;;;;;;4.85;1.27;;;;;;;;;;10511770;28;20199;-83
2023/01/14 12:02:06;;;;;;;4.72;1.00;;;;;;;;;;10511491;28;20031;-82
2023/01/14 12:07:11;;;;;;;2.75;1.10;;;;;;;;;;10478481;28;20041;-84
2023/01/14 12:12:21;;;;;;;3.22;0.90;;;;;;;;;;10511414;28;20055;-85
2023/01/14 12:17:50;;;;;;;1.30;0.73;;;;;;;;;;10510991;28;20485;-84
2023/01/14 12:22:51;;;;;;;3.58;1.40;;;;;;;;;;10512945;28;20025;-83
2023/01/14 12:27:59;;;;;;;2.78;1.02;;;;;;;;;;10526231;28;20037;-83
2023/01/14 12:33:09;;;;;;;3.47;1.15;;;;;;;;;;10518401;28;20033;-82
2023/01/14 12:49:19;;;;;;;2.30;0.70;;;;;;;;;;10525145;28;20063;-83
2023/01/14 12:54:24;;;;;;;3.92;0.93;;;;;;;;;;10532677;28;20036;-78
2023/01/14 12:59:27;;;;;;;4.07;1.10;;;;;;;;;;10525995;28;20028;-81
2023/01/14 13:04:35;;;;;;;1.75;0.93;;;;;;;;;;10518128;28;20104;-82
2023/01/14 13:09:53;;;;;;;2.28;0.85;;;;;;;;;;10527233;28;20048;-85
2023/01/14 13:14:56;;;;;;;2.00;0.60;;;;;;;;;;10533635;28;20033;-84
2023/01/14 13:20:04;;;;;;;2.28;0.77;;;;;;;;;;10535466;28;20087;-85
2023/01/14 13:25:24;;;;;;;1.92;0.70;;;;;;;;;;10540555;28;20028;-84
2023/01/14 13:30:25;;;;;;;1.52;0.80;;;;;;;;;;10533449;28;20028;-83
2023/01/14 13:35:41;;;;;;;1.90;0.85;;;;;;;;;;10531609;28;20092;-84
2023/01/14 13:40:50;;;;;;;1.45;0.80;;;;;;;;;;10535023;28;20020;-83
2023/01/14 13:45:56;;;;;;;2.25;0.70;;;;;;;;;;10546343;28;20036;-84
2023/01/14 13:51:16;;;;;;;2.13;0.60;;;;;;;;;;10540306;28;20103;-84
2023/01/14 13:56:22;;;;;;;1.67;0.63;;;;;;;;;;10548427;28;20020;-83
2023/01/14 14:01:28;;;;;;;1.55;0.68;;;;;;;;;;10548754;28;20037;-82
2023/01/14 14:06:29;;;;;;;3.08;0.95;;;;;;;;;;10544455;28;20033;-85
2023/01/14 14:11:41;;;;;;;1.33;0.68;;;;;;;;;;10532346;28;20474;-83
2023/01/14 14:16:42;;;;;;;;;;;;;;;;;;10531700;28;20096;-83
2023/01/14 14:21:46;;;;;;;2.03;0.80;;;;;;;;;;10545924;28;19901;-82
2023/01/14 14:26:47;;;;;;;0.93;0.52;;;;;;;;;;10537349;28;20263;-82
2023/01/14 14:31:49;;;;;;;;;;;;;;;;;;10533821;28;20032;-83
2023/01/14 14:36:53;;;;;;;1.67;0.60;;;;;;;;;;10529479;28;19904;-83
2023/01/14 14:42:22;;;;;;;1.65;0.70;;;;;;;;;;10524870;28;20024;-85
2023/01/14 14:47:24;;;;;;;1.30;0.50;;;;;;;;;;10516420;28;20051;-84
2023/01/14 14:52:28;;;;;;;1.35;0.77;;;;;;;;;;10532477;28;20040;-82
2023/01/14 14:57:31;;;;;;;2.55;0.82;;;;;;;;;;10533832;28;20055;-85
2023/01/14 15:02:44;;;;;;;2.58;1.00;;;;;;;;;;10542603;28;20040;-83
2023/01/14 15:07:45;;;;;;;1.73;1.08;;;;;;;;;;10546770;28;20024;-85
2023/01/14 15:12:46;;;;;;;1.58;0.80;;;;;;;;;;10547030;28;20032;-84
2023/01/14 15:18:16;;;;;;;1.40;0.60;;;;;;;;;;10536116;28;20028;-84
2023/01/14 15:23:20;;;;;;;1.08;0.70;;;;;;;;;;10532394;28;20036;-85
2023/01/14 15:28:42;;;;;;;1.35;0.65;;;;;;;;;;10497597;28;20047;-84
2023/01/14 15:33:43;;;;;;;1.10;0.60;;;;;;;;;;10551334;28;20025;-84
2023/01/14 15:39:02;;;;;;;1.15;0.75;;;;;;;;;;10555112;28;20016;-84
2023/01/14 15:44:04;;;;;;;2.20;1.13;;;;;;;;;;10554826;28;20053;-84
2023/01/14 15:49:10;;;;;;;2.00;0.55;;;;;;;;;;10530525;28;20040;-84
2023/01/14 15:54:26;;;;;;;1.48;0.73;;;;;;;;;;10529733;28;20063;-84
2023/01/14 15:59:29;;;;;;;3.85;0.88;;;;;;;;;;10530041;28;20386;-84
2023/01/14 16:04:45;;;;;;;2.08;0.70;;;;;;;;;;10528026;28;20115;-84
2023/01/14 16:09:53;;;;;;;1.35;0.77;;;;;;;;;;10527483;28;20074;-84
2023/01/14 16:14:54;;;;;;;1.33;0.93;;;;;;;;;;10530868;28;20085;-84
2023/01/14 16:19:58;;;;;;;;;;;;;;;;;;10526473;28;20033;-85
2023/01/14 16:24:59;;;;;;;1.35;0.70;;;;;;;;;;10527099;28;19915;-85
2023/01/14 16:35:33;;;;;;;1.88;1.00;;;;;;;;;;10532406;28;20041;-83
2023/01/14 16:40:45;;;;;;;;;;;;;;;;;;10535627;28;20055;-84
2023/01/14 16:51:41;;;;;;;1.55;0.55;;;;;;;;;;10529616;28;20029;-84
2023/01/14 16:56:42;;;;;;;1.30;0.50;;;;;;;;;;10526800;28;20033;-84
2023/01/14 17:01:47;;;;;;;2.13;0.70;;;;;;;;;;10527590;28;20356;-83
2023/01/14 17:06:51;;;;;;;4.30;0.93;;;;;;;;;;10531726;28;20021;-84
2023/01/14 17:17:15;;;;;;;1.73;0.70;;;;;;;;;;10527534;28;20048;-84
2023/01/14 17:22:25;;;;;;;;;;;;;;;;;;10524979;28;20036;-84
2023/01/14 17:27:33;;;;;;;0.98;0.65;;;;;;;;;;10524593;28;19912;-83
2023/01/14 17:32:34;;;;;;;1.50;1.00;;;;;;;;;;10540307;28;20078;-84
2023/01/14 17:38:14;;;;;;;1.58;0.73;;;;;;;;;;10525498;28;20032;-84
2023/01/14 17:43:35;;;;;;;1.10;0.90;;;;;;;;;;10528906;28;20120;-84
2023/01/14 17:48:36;;;;;;;2.28;1.30;;;;;;;;;;10525523;28;20255;-84
2023/01/14 17:53:38;;;;;;;1.48;0.85;;;;;;;;;;10531350;28;20036;-84
2023/01/14 17:58:47;;;;;;;1.75;0.90;;;;;;;;;;10523145;28;20096;-85
2023/01/14 18:03:52;;;;;;;2.17;0.55;;;;;;;;;;10529687;28;20119;-84
2023/01/14 18:08:53;;;;;;;3.63;1.10;;;;;;;;;;10530780;28;20024;-85
2023/01/14 18:13:54;;;;;;;2.58;0.82;;;;;;;;;;10529829;28;20059;-85
2023/01/14 18:18:56;;;;;;;1.38;0.77;;;;;;;;;;10525807;28;20025;-85
2023/01/14 18:23:57;;;;;;;1.80;0.82;;;;;;;;;;10524445;28;20063;-86
2023/01/14 18:29:00;;;;;;;1.35;0.80;;;;;;;;;;10525800;28;20382;-85
2023/01/14 18:34:01;;;;;;;;;;;;;;;;;;10525340;28;20017;-85
2023/01/14 19:56:40;;;;;;;;;;;;;;;;;;10580195;28;20044;-87
2023/01/14 20:01:41;;;;;;;1.45;0.70;;;;;;;;;;10582586;28;19911;-86
2023/01/14 20:06:47;;;;;;;1.30;0.57;;;;;;;;;;10581180;28;20091;-87
2023/01/14 20:11:48;;;;;;;1.70;0.70;;;;;;;;;;10574383;28;20031;-86
2023/01/14 20:16:50;;;;;;;1.70;0.80;;;;;;;;;;10575958;28;20477;-86
